Time;durP1;ratioP1;P1;durP2;ratioP2;P2;SDS_P1;SDS_P2;PMS_P1;PMS_P2;Temp;Humidity;BMP_temperature;BMP_pressure;BME280_temperature;BME280_humidity;BME280_pressure;Samples;Min_cycle;Max_cycle;Signal;HPM_P1;HPM_P2
2024/04/19 00:00:43;;;;;;;;;;;19.10;47.20;;;;;;9019815;26;19928;-58
2024/04/19 00:04:44;;;;;;;;;;;19.10;47.10;;;;;;9019715;26;19969;-59
2024/04/19 00:08:44;;;;;;;;;;;19.10;47.20;;;;;;8988245;26;20269;-57
2024/04/19 00:12:45;;;;;;;;;;;19.10;47.20;;;;;;8978443;26;19936;-59
2024/04/19 00:16:45;;;;;;;;;;;19.10;47.10;;;;;;8901234;26;20328;-58
2024/04/19 00:20:46;;;;;;;;;;;19.10;47.20;;;;;;8901503;26;19933;-59
2024/04/19 00:24:47;;;;;;;;;;;19.10;47.20;;;;;;8901258;26;19937;-59
2024/04/19 00:28:48;;;;;;;;;;;19.10;47.20;;;;;;8901101;26;19929;-58
2024/04/19 00:32:49;;;;;;;;;;;19.00;47.20;;;;;;8944275;26;19941;-57
2024/04/19 00:36:49;;;;;;;;;;;19.00;47.20;;;;;;8959756;26;20374;-59
2024/04/19 00:40:50;;;;;;;;;;;19.00;47.20;;;;;;8959119;26;19936;-58
2024/04/19 00:44:50;;;;;;;;;;;19.10;47.20;;;;;;8959122;26;19965;-57
2024/04/19 00:48:51;;;;;;;;;;;19.10;47.20;;;;;;8985276;26;19928;-58
2024/04/19 00:52:51;;;;;;;;;;;19.00;47.20;;;;;;8986891;26;19928;-59
2024/04/19 00:56:52;;;;;;;;;;;19.10;47.20;;;;;;9021001;26;19929;-58
2024/04/19 01:00:53;;;;;;;;;;;19.10;47.20;;;;;;9024432;26;19932;-59
2024/04/19 01:04:54;;;;;;;;;;;19.00;47.20;;;;;;9023865;26;19929;-59
2024/04/19 01:08:55;;;;;;;;;;;19.00;47.10;;;;;;9024427;26;19928;-58
2024/04/19 01:12:56;;;;;;;;;;;19.00;47.10;;;;;;9000875;26;19929;-59
2024/04/19 01:16:57;;;;;;;;;;;19.00;47.10;;;;;;8964285;26;20048;-59
2024/04/19 01:20:57;;;;;;;;;;;19.00;47.10;;;;;;8965057;26;19929;-59
2024/04/19 01:24:58;;;;;;;;;;;19.00;47.10;;;;;;8964584;26;19941;-59
2024/04/19 01:28:59;;;;;;;;;;;19.00;47.20;;;;;;8964145;26;19929;-59
2024/04/19 01:32:59;;;;;;;;;;;19.00;47.10;;;;;;8963856;26;19929;-59
2024/04/19 01:37:00;;;;;;;;;;;19.00;47.20;;;;;;8964769;26;20388;-59
2024/04/19 01:41:00;;;;;;;;;;;19.00;47.20;;;;;;8964176;26;19929;-59
2024/04/19 01:45:01;;;;;;;;;;;19.00;47.20;;;;;;8963668;26;19939;-58
2024/04/19 01:49:02;;;;;;;;;;;19.00;47.20;;;;;;8992661;26;19929;-59
2024/04/19 01:53:02;;;;;;;;;;;19.00;47.20;;;;;;8991119;26;19928;-59
2024/04/19 01:57:03;;;;;;;;;;;18.90;47.20;;;;;;9022426;26;19939;-59
2024/04/19 02:01:03;;;;;;;;;;;19.00;47.20;;;;;;9022835;26;19929;-59
2024/04/19 02:05:04;;;;;;;;;;;19.00;47.20;;;;;;9022579;26;20369;-59
2024/04/19 02:09:05;;;;;;;;;;;19.00;47.10;;;;;;9021810;26;19928;-59
2024/04/19 02:13:05;;;;;;;;;;;19.00;47.20;;;;;;8970875;26;20279;-60
2024/04/19 02:17:06;;;;;;;;;;;19.00;47.10;;;;;;8903978;26;20017;-59
2024/04/19 02:21:06;;;;;;;;;;;19.00;47.10;;;;;;8904057;26;19976;-58
2024/04/19 02:25:07;;;;;;;;;;;19.00;47.10;;;;;;8903816;26;19937;-59
2024/04/19 02:33:27;;;;;;;;;;;19.00;47.10;;;;;;8956372;26;19935;-59
2024/04/19 02:37:28;;;;;;;;;;;19.00;47.10;;;;;;8961809;26;19929;-59
2024/04/19 02:41:28;;;;;;;;;;;19.00;47.10;;;;;;8962153;26;19933;-58
2024/04/19 02:45:29;;;;;;;;;;;19.00;47.10;;;;;;8962255;26;19929;-57
2024/04/19 02:49:29;;;;;;;;;;;19.00;47.10;;;;;;8878535;26;19930;-59
2024/04/19 02:53:33;;;;;;;;;;;19.00;47.10;;;;;;8903653;26;19929;-58
2024/04/19 02:57:33;;;;;;;;;;;19.00;47.10;;;;;;8983172;26;20512;-59
2024/04/19 03:01:35;;;;;;;;;;;19.00;47.10;;;;;;9020979;26;20655;-59
2024/04/19 03:05:36;;;;;;;;;;;19.00;47.10;;;;;;9021445;26;19937;-58
2024/04/19 03:09:36;;;;;;;;;;;19.00;47.10;;;;;;9021357;26;19956;-59
2024/04/19 03:13:37;;;;;;;;;;;19.00;47.10;;;;;;8987035;26;19936;-59
2024/04/19 03:17:38;;;;;;;;;;;19.00;47.10;;;;;;8961038;26;20002;-59
2024/04/19 03:21:38;;;;;;;;;;;19.00;47.10;;;;;;8961098;26;19940;-59
2024/04/19 03:25:39;;;;;;;;;;;19.00;47.10;;;;;;8961044;26;19962;-57
2024/04/19 03:29:39;;;;;;;;;;;19.00;47.10;;;;;;8960803;26;20019;-59
2024/04/19 03:33:40;;;;;;;;;;;19.00;47.10;;;;;;8960927;26;20272;-59
2024/04/19 03:37:40;;;;;;;;;;;19.00;47.10;;;;;;8960783;26;19929;-59
2024/04/19 03:41:43;;;;;;;;;;;19.00;47.10;;;;;;8960362;26;20002;-58
2024/04/19 03:45:44;;;;;;;;;;;19.00;47.10;;;;;;8960254;26;20333;-58
2024/04/19 03:49:45;;;;;;;;;;;19.00;47.10;;;;;;9000175;26;20443;-58
2024/04/19 03:53:46;;;;;;;;;;;19.00;47.10;;;;;;9020102;26;20356;-59
2024/04/19 03:57:46;;;;;;;;;;;19.00;47.10;;;;;;9018999;26;19929;-59
2024/04/19 04:01:47;;;;;;;;;;;19.00;47.10;;;;;;9019623;26;19956;-59
2024/04/19 04:05:51;;;;;;;;;;;19.00;47.10;;;;;;9019477;26;20372;-59
2024/04/19 04:09:52;;;;;;;;;;;19.00;47.10;;;;;;9019356;26;19935;-59
2024/04/19 04:13:53;;;;;;;;;;;19.00;47.10;;;;;;8944807;26;19929;-59
2024/04/19 04:17:54;;;;;;;;;;;19.00;47.10;;;;;;8900941;26;19937;-60
2024/04/19 04:21:54;;;;;;;;;;;19.00;47.00;;;;;;8900929;26;19929;-59
2024/04/19 04:25:55;;;;;;;;;;;19.00;47.00;;;;;;8900638;26;19937;-59
2024/04/19 04:29:55;;;;;;;;;;;19.10;46.90;;;;;;8871177;26;19998;-59
2024/04/19 04:33:56;;;;;;;;;;;19.10;47.40;;;;;;8965187;26;19936;-59
2024/04/19 04:37:56;;;;;;;;;;;19.10;46.80;;;;;;8965124;26;19964;-59
2024/04/19 04:41:57;;;;;;;;;;;19.20;46.70;;;;;;8964668;26;19929;-58
2024/04/19 04:45:57;;;;;;;;;;;19.20;46.70;;;;;;8964786;26;19939;-59
2024/04/19 04:49:58;;;;;;;;;;;19.20;46.70;;;;;;9007620;26;19937;-58
2024/04/19 04:53:59;;;;;;;;;;;19.20;46.70;;;;;;9024531;26;20270;-58
2024/04/19 04:58:00;;;;;;;;;;;19.20;46.60;;;;;;9023697;26;19970;-59
2024/04/19 05:02:00;;;;;;;;;;;19.20;46.70;;;;;;9023967;26;20549;-59
2024/04/19 05:06:01;;;;;;;;;;;19.20;46.60;;;;;;9023865;26;20372;-59
2024/04/19 05:10:02;;;;;;;;;;;19.20;46.60;;;;;;9023763;26;19940;-58
2024/04/19 05:14:03;;;;;;;;;;;19.20;46.60;;;;;;8944639;26;19940;-58
2024/04/19 05:18:03;;;;;;;;;;;19.30;46.60;;;;;;8905822;26;19936;-58
2024/04/19 05:22:04;;;;;;;;;;;19.30;46.60;;;;;;8904890;26;20059;-58
2024/04/19 05:26:05;;;;;;;;;;;19.30;46.60;;;;;;8905986;26;20002;-58
2024/04/19 05:30:05;;;;;;;;;;;19.30;46.60;;;;;;8909123;26;19957;-58
2024/04/19 05:34:06;;;;;;;;;;;19.30;46.60;;;;;;8964572;26;19953;-58
2024/04/19 05:38:06;;;;;;;;;;;19.30;46.60;;;;;;8964107;26;19980;-57
2024/04/19 05:42:08;;;;;;;;;;;19.30;46.60;;;;;;8932578;26;19940;-58
2024/04/19 05:46:09;;;;;;;;;;;19.20;46.60;;;;;;8963543;26;19935;-57
2024/04/19 05:50:09;;;;;;;;;;;19.20;46.60;;;;;;8977084;26;19944;-56
2024/04/19 05:54:10;;;;;;;;;;;19.20;46.70;;;;;;9023007;26;19935;-56
2024/04/19 05:58:10;;;;;;;;;;;19.20;46.70;;;;;;9022058;26;19929;-58
2024/04/19 06:02:11;;;;;;;;;;;19.20;46.80;;;;;;9022786;26;19943;-57
2024/04/19 06:06:11;;;;;;;;;;;19.10;46.80;;;;;;8990670;26;19936;-57
2024/04/19 06:10:12;;;;;;;;;;;19.10;46.80;;;;;;9022346;26;20386;-57
2024/04/19 06:14:13;;;;;;;;;;;19.10;46.80;;;;;;8937931;26;19930;-57
2024/04/19 06:18:13;;;;;;;;;;;19.10;46.80;;;;;;8904132;26;19961;-57
2024/04/19 06:22:14;;;;;;;;;;;19.10;46.70;;;;;;8903991;26;19936;-56
2024/04/19 06:26:14;;;;;;;;;;;19.20;46.70;;;;;;8903851;26;20002;-56
2024/04/19 06:30:15;;;;;;;;;;;19.20;46.60;;;;;;8909578;26;19936;-57
2024/04/19 06:34:16;;;;;;;;;;;19.30;46.60;;;;;;8963089;26;19933;-56
2024/04/19 06:38:16;;;;;;;;;;;19.30;46.60;;;;;;8962588;26;19939;-56
2024/04/19 06:42:17;;;;;;;;;;;19.30;46.60;;;;;;8962294;26;19929;-56
2024/04/19 06:46:17;;;;;;;;;;;19.30;46.60;;;;;;8962577;26;20320;-55
2024/04/19 06:50:18;;;;;;;;;;;19.30;46.60;;;;;;9009602;26;20366;-56
2024/04/19 06:54:18;;;;;;;;;;;19.30;46.60;;;;;;9021758;26;20022;-56
2024/04/19 06:58:19;;;;;;;;;;;19.30;46.60;;;;;;9020655;26;19933;-57
2024/04/19 07:02:19;;;;;;;;;;;19.30;46.60;;;;;;9021403;26;19928;-59
2024/04/19 07:06:21;;;;;;;;;;;19.30;46.60;;;;;;9021576;26;19935;-59
2024/04/19 07:10:22;;;;;;;;;;;19.30;46.60;;;;;;9021763;26;19940;-59
2024/04/19 07:14:23;;;;;;;;;;;19.30;46.60;;;;;;8931623;26;19941;-59
2024/04/19 07:18:24;;;;;;;;;;;19.30;46.60;;;;;;8872551;26;19930;-59
2024/04/19 07:22:24;;;;;;;;;;;19.30;46.50;;;;;;8871814;26;19929;-60
2024/04/19 07:26:25;;;;;;;;;;;19.30;46.50;;;;;;8902378;26;19961;-59
2024/04/19 07:30:25;;;;;;;;;;;19.30;46.50;;;;;;8880613;26;19929;-59
2024/04/19 07:34:27;;;;;;;;;;;19.30;46.50;;;;;;8930476;26;20058;-59
2024/04/19 07:38:27;;;;;;;;;;;19.30;46.50;;;;;;8929831;26;19969;-60
2024/04/19 07:42:32;;;;;;;;;;;19.30;46.50;;;;;;8914094;26;19930;-60
2024/04/19 07:46:33;;;;;;;;;;;19.30;46.50;;;;;;8901953;26;19938;-59
2024/04/19 07:50:33;;;;;;;;;;;19.30;46.50;;;;;;8972597;26;19935;-59
2024/04/19 07:54:34;;;;;;;;;;;19.30;46.50;;;;;;9020242;26;20574;-59
2024/04/19 07:58:34;;;;;;;;;;;19.30;46.50;;;;;;9019611;26;20030;-59
2024/04/19 08:02:35;;;;;;;;;;;19.30;46.50;;;;;;8988435;26;20366;-59
2024/04/19 08:06:36;;;;;;;;;;;19.30;46.50;;;;;;9019007;26;19935;-59
2024/04/19 08:10:36;;;;;;;;;;;19.30;46.50;;;;;;9019425;26;20274;-59
2024/04/19 08:14:37;;;;;;;;;;;19.30;46.50;;;;;;8923414;26;19938;-58
2024/04/19 08:18:38;;;;;;;;;;;19.30;46.50;;;;;;8901556;26;19929;-58
2024/04/19 08:22:38;;;;;;;;;;;19.30;46.50;;;;;;8900965;26;19941;-59
2024/04/19 08:26:39;;;;;;;;;;;19.30;46.60;;;;;;8870219;26;19965;-58
2024/04/19 08:30:39;;;;;;;;;;;19.30;46.50;;;;;;8881648;26;19929;-59
2024/04/19 08:34:40;;;;;;;;;;;19.30;47.00;;;;;;8927827;26;19929;-58
2024/04/19 08:38:40;;;;;;;;;;;19.30;46.50;;;;;;8959429;26;19928;-58
2024/04/19 08:42:41;;;;;;;;;;;19.30;46.50;;;;;;8908844;26;19956;-58
2024/04/19 08:46:42;;;;;;;;;;;19.30;46.50;;;;;;8900370;26;19937;-58
2024/04/19 08:50:43;;;;;;;;;;;19.30;46.50;;;;;;8975754;26;20337;-59
2024/04/19 08:54:44;;;;;;;;;;;19.30;46.50;;;;;;9018536;26;19939;-58
2024/04/19 08:58:45;;;;;;;;;;;19.30;46.40;;;;;;9018282;26;20347;-58
2024/04/19 09:02:45;;;;;;;;;;;19.30;46.40;;;;;;9018076;26;19935;-58
2024/04/19 09:06:46;;;;;;;;;;;19.30;46.40;;;;;;9017803;26;19928;-58
2024/04/19 09:10:49;;;;;;;;;;;19.30;46.40;;;;;;9017720;26;19928;-58
2024/04/19 09:14:51;;;;;;;;;;;19.30;46.40;;;;;;8914541;26;19929;-58
2024/04/19 09:18:51;;;;;;;;;;;19.30;46.40;;;;;;8904553;26;19936;-58
2024/04/19 09:22:52;;;;;;;;;;;19.30;46.40;;;;;;8905231;26;19930;-56
2024/04/19 09:26:59;;;;;;;;;;;19.30;46.50;;;;;;8905944;26;20355;-57
2024/04/19 09:30:59;;;;;;;;;;;19.30;46.50;;;;;;8891362;26;19929;-56
2024/04/19 09:35:01;;;;;;;;;;;19.20;46.50;;;;;;8932584;26;19944;-57
2024/04/19 09:39:02;;;;;;;;;;;19.30;46.60;;;;;;8933067;26;20260;-58
2024/04/19 09:43:06;;;;;;;;;;;19.20;46.50;;;;;;8939388;26;19963;-57
2024/04/19 09:47:07;;;;;;;;;;;19.20;46.50;;;;;;8905288;26;20303;-56
2024/04/19 09:51:12;;;;;;;;;;;19.30;46.60;;;;;;9023107;26;19935;-56
2024/04/19 09:55:16;;;;;;;;;;;19.20;46.50;;;;;;9022488;26;19933;-57
2024/04/19 09:59:18;;;;;;;;;;;19.20;46.50;;;;;;9023534;26;20358;-57
2024/04/19 10:03:21;;;;;;;;;;;19.20;46.50;;;;;;9022642;26;19940;-57
2024/04/19 10:07:22;;;;;;;;;;;19.20;46.50;;;;;;9021971;26;20012;-56
2024/04/19 10:11:23;;;;;;;;;;;19.20;46.60;;;;;;9021714;26;19928;-57
2024/04/19 10:15:24;;;;;;;;;;;19.20;46.60;;;;;;8904494;26;19929;-57
2024/04/19 10:19:25;;;;;;;;;;;19.20;46.60;;;;;;8904019;26;20344;-57
2024/04/19 10:23:26;;;;;;;;;;;19.20;46.60;;;;;;8904055;26;19937;-57
2024/04/19 10:27:30;;;;;;;;;;;19.20;46.60;;;;;;8903442;26;19937;-56
2024/04/19 10:31:31;;;;;;;;;;;19.10;46.60;;;;;;8927351;26;19957;-56
2024/04/19 10:35:35;;;;;;;;;;;19.20;46.70;;;;;;8962435;26;19939;-58
2024/04/19 10:39:36;;;;;;;;;;;19.10;46.60;;;;;;8962421;26;19929;-59
2024/04/19 10:43:42;;;;;;;;;;;19.20;46.60;;;;;;8962025;26;19961;-58
2024/04/19 10:47:43;;;;;;;;;;;19.20;46.60;;;;;;8971364;26;19935;-59
2024/04/19 10:51:43;;;;;;;;;;;19.20;46.60;;;;;;9021869;26;19928;-59
2024/04/19 10:55:46;;;;;;;;;;;19.20;46.60;;;;;;9020141;26;20456;-59
2024/04/19 10:59:47;;;;;;;;;;;19.20;46.60;;;;;;9021669;26;19929;-58
2024/04/19 11:03:48;;;;;;;;;;;19.20;46.50;;;;;;8990033;26;19928;-57
2024/04/19 11:07:48;;;;;;;;;;;19.20;46.50;;;;;;9021025;26;19929;-58
2024/04/19 11:11:49;;;;;;;;;;;19.20;46.40;;;;;;8975684;26;19929;-58
2024/04/19 11:15:50;;;;;;;;;;;19.30;46.50;;;;;;8871898;26;19937;-58
2024/04/19 11:19:51;;;;;;;;;;;19.30;46.40;;;;;;8903165;26;19929;-59
2024/04/19 11:23:51;;;;;;;;;;;19.30;46.40;;;;;;8902477;26;19937;-58
2024/04/19 11:27:52;;;;;;;;;;;19.30;46.40;;;;;;8902734;26;20292;-58
2024/04/19 11:31:53;;;;;;;;;;;19.30;46.40;;;;;;8931859;26;19941;-59
2024/04/19 11:35:53;;;;;;;;;;;19.30;46.40;;;;;;8960969;26;20304;-59
2024/04/19 11:39:54;;;;;;;;;;;19.30;46.40;;;;;;8961183;26;19936;-59
2024/04/19 11:43:58;;;;;;;;;;;19.30;46.40;;;;;;8960743;26;19936;-57
2024/04/19 11:47:59;;;;;;;;;;;19.30;46.40;;;;;;8942482;26;19928;-56
2024/04/19 11:52:00;;;;;;;;;;;19.20;46.40;;;;;;9020273;26;19948;-57
2024/04/19 11:56:00;;;;;;;;;;;19.20;46.40;;;;;;9019640;26;20270;-57
2024/04/19 12:00:01;;;;;;;;;;;19.20;46.50;;;;;;9019646;26;19929;-56
2024/04/19 12:04:02;;;;;;;;;;;19.20;46.50;;;;;;9020222;26;19979;-57
2024/04/19 12:08:02;;;;;;;;;;;19.20;46.50;;;;;;9019249;26;19943;-57
2024/04/19 12:12:03;;;;;;;;;;;19.20;46.60;;;;;;8999006;26;19998;-56
2024/04/19 12:16:05;;;;;;;;;;;19.20;46.60;;;;;;8842092;26;19929;-55
2024/04/19 12:20:06;;;;;;;;;;;19.10;46.60;;;;;;8870235;26;19929;-56
2024/04/19 12:24:07;;;;;;;;;;;19.10;46.60;;;;;;8901638;26;20429;-56
2024/04/19 12:28:07;;;;;;;;;;;19.10;46.60;;;;;;8901672;26;19980;-56
2024/04/19 12:32:08;;;;;;;;;;;19.10;46.60;;;;;;8934180;26;19945;-56
2024/04/19 12:36:09;;;;;;;;;;;19.20;46.70;;;;;;8960253;26;19929;-56
2024/04/19 12:40:10;;;;;;;;;;;19.10;46.60;;;;;;8959815;26;20366;-56
2024/04/19 12:44:10;;;;;;;;;;;19.10;46.60;;;;;;8959146;26;19929;-57
2024/04/19 12:48:11;;;;;;;;;;;19.20;46.60;;;;;;8944003;26;19960;-57
2024/04/19 12:52:12;;;;;;;;;;;19.20;46.50;;;;;;9020602;26;19929;-56
2024/04/19 12:56:12;;;;;;;;;;;19.30;46.50;;;;;;9023976;26;19929;-58
2024/04/19 13:00:13;;;;;;;;;;;19.20;46.50;;;;;;9024182;26;19940;-57
2024/04/19 13:04:13;;;;;;;;;;;19.20;46.50;;;;;;9024412;26;19928;-57
2024/04/19 13:08:14;;;;;;;;;;;19.20;46.50;;;;;;9024155;26;19928;-57
2024/04/19 13:12:14;;;;;;;;;;;19.20;46.50;;;;;;8997618;26;19930;-58
2024/04/19 13:16:15;;;;;;;;;;;19.20;46.50;;;;;;8905880;26;19936;-59
2024/04/19 13:20:16;;;;;;;;;;;19.20;46.50;;;;;;8905816;26;19941;-58
2024/04/19 13:24:17;;;;;;;;;;;19.20;46.60;;;;;;8905700;26;19941;-58
2024/04/19 13:28:17;;;;;;;;;;;19.20;46.60;;;;;;8905049;26;19929;-57
2024/04/19 13:32:18;;;;;;;;;;;19.20;46.60;;;;;;8941400;26;19928;-58
2024/04/19 13:36:18;;;;;;;;;;;19.20;46.60;;;;;;8963905;26;19929;-58
2024/04/19 13:40:19;;;;;;;;;;;19.20;46.50;;;;;;8964207;26;20391;-58
2024/04/19 13:44:20;;;;;;;;;;;19.20;46.50;;;;;;8963970;26;19929;-57
2024/04/19 13:48:22;;;;;;;;;;;19.20;46.50;;;;;;8981672;26;19928;-58
2024/04/19 13:52:22;;;;;;;;;;;19.20;46.50;;;;;;8991264;26;19934;-58
2024/04/19 13:56:23;;;;;;;;;;;19.20;46.50;;;;;;9022692;26;20373;-58
2024/04/19 14:00:23;;;;;;;;;;;19.20;46.50;;;;;;9022497;26;19935;-58
2024/04/19 14:04:24;;;;;;;;;;;19.20;46.50;;;;;;9022377;26;20363;-56
2024/04/19 14:08:24;;;;;;;;;;;19.20;46.50;;;;;;9022637;26;19935;-57
2024/04/19 14:12:25;;;;;;;;;;;19.20;46.50;;;;;;8991079;26;19999;-56
2024/04/19 14:16:26;;;;;;;;;;;19.20;46.50;;;;;;8904143;26;19937;-56
2024/04/19 14:20:27;;;;;;;;;;;19.20;46.50;;;;;;8872903;26;19930;-57
2024/04/19 14:24:28;;;;;;;;;;;19.20;46.50;;;;;;8904207;26;19929;-57
2024/04/19 14:28:30;;;;;;;;;;;19.20;46.50;;;;;;8873060;26;19929;-56
2024/04/19 14:32:30;;;;;;;;;;;19.20;46.50;;;;;;8942619;26;19935;-57
2024/04/19 14:36:31;;;;;;;;;;;19.20;46.50;;;;;;8962243;26;19929;-57
2024/04/19 14:40:32;;;;;;;;;;;19.20;46.50;;;;;;8962519;26;19949;-57
2024/04/19 14:44:33;;;;;;;;;;;19.20;46.50;;;;;;8884706;26;19930;-57
2024/04/19 14:48:36;;;;;;;;;;;19.20;46.50;;;;;;8946575;26;19936;-56
2024/04/19 14:52:37;;;;;;;;;;;19.20;46.40;;;;;;9021680;26;19997;-56
2024/04/19 14:56:38;;;;;;;;;;;19.20;46.50;;;;;;9021179;26;19929;-56
2024/04/19 15:00:38;;;;;;;;;;;19.20;46.50;;;;;;9021237;26;19935;-57
2024/04/19 15:04:39;;;;;;;;;;;19.20;47.00;;;;;;9021298;26;19929;-55
2024/04/19 15:08:40;;;;;;;;;;;19.20;46.40;;;;;;9020992;26;19935;-55
2024/04/19 15:12:40;;;;;;;;;;;19.20;46.40;;;;;;8981929;26;19941;-58
2024/04/19 15:16:41;;;;;;;;;;;19.20;46.40;;;;;;8902204;26;19933;-56
2024/04/19 15:20:42;;;;;;;;;;;19.20;46.40;;;;;;8871668;26;19930;-56
2024/04/19 15:24:43;;;;;;;;;;;19.20;46.50;;;;;;8902522;26;19998;-57
2024/04/19 15:28:46;;;;;;;;;;;19.20;46.50;;;;;;8902351;26;19937;-57
2024/04/19 15:32:47;;;;;;;;;;;19.20;46.50;;;;;;8945596;26;19929;-56
2024/04/19 15:36:50;;;;;;;;;;;19.10;47.00;;;;;;8930143;26;20279;-56
2024/04/19 15:40:51;;;;;;;;;;;19.20;46.60;;;;;;8961739;26;19941;-57
2024/04/19 15:44:52;;;;;;;;;;;19.10;46.50;;;;;;8960607;26;20002;-57
2024/04/19 15:48:54;;;;;;;;;;;19.20;46.60;;;;;;8986898;26;20131;-55
2024/04/19 15:52:55;;;;;;;;;;;19.20;46.60;;;;;;8959562;26;20537;-57
2024/04/19 15:56:58;;;;;;;;;;;19.20;46.60;;;;;;9019511;26;19939;-56
2024/04/19 16:01:04;;;;;;;;;;;19.20;46.50;;;;;;8989200;26;19935;-56
2024/04/19 16:05:05;;;;;;;;;;;19.20;46.50;;;;;;9019663;26;19932;-56
2024/04/19 16:09:06;;;;;;;;;;;19.20;46.40;;;;;;9019952;26;20339;-56
2024/04/19 16:13:07;;;;;;;;;;;19.20;46.40;;;;;;8967914;26;20359;-56
2024/04/19 16:17:07;;;;;;;;;;;19.20;46.40;;;;;;8870955;26;20349;-56
2024/04/19 16:21:08;;;;;;;;;;;19.20;46.30;;;;;;8900993;26;19998;-56
2024/04/19 16:25:09;;;;;;;;;;;19.30;46.30;;;;;;8901011;26;19930;-58
2024/04/19 16:29:10;;;;;;;;;;;19.20;46.30;;;;;;8905667;26;19937;-57
2024/04/19 16:33:11;;;;;;;;;;;19.30;46.40;;;;;;8954968;26;19936;-58
2024/04/19 16:37:12;;;;;;;;;;;19.30;46.30;;;;;;8965044;26;19935;-56
2024/04/19 16:41:12;;;;;;;;;;;19.30;46.30;;;;;;8964973;26;19961;-56
2024/04/19 16:45:13;;;;;;;;;;;19.30;46.30;;;;;;8964623;26;20383;-56
2024/04/19 16:49:14;;;;;;;;;;;19.20;46.40;;;;;;8996530;26;19978;-58
2024/04/19 16:53:14;;;;;;;;;;;19.20;46.40;;;;;;9024257;26;20000;-57
2024/04/19 16:57:15;;;;;;;;;;;19.20;46.40;;;;;;9024364;26;20540;-58
2024/04/19 17:01:15;;;;;;;;;;;19.20;46.50;;;;;;9024189;26;19935;-59
2024/04/19 17:05:18;;;;;;;;;;;19.20;46.50;;;;;;9023966;26;20370;-58
2024/04/19 17:09:19;;;;;;;;;;;19.20;46.50;;;;;;9024193;26;19928;-56
2024/04/19 17:13:19;;;;;;;;;;;19.10;46.50;;;;;;8934027;26;19936;-58
2024/04/19 17:17:20;;;;;;;;;;;19.10;46.60;;;;;;8905525;26;19936;-57
2024/04/19 17:21:21;;;;;;;;;;;19.10;46.60;;;;;;8905410;26;19969;-57
2024/04/19 17:25:22;;;;;;;;;;;19.10;46.60;;;;;;8905618;26;19937;-60
2024/04/19 17:29:22;;;;;;;;;;;19.10;46.60;;;;;;8905444;26;19930;-57
2024/04/19 17:33:23;;;;;;;;;;;19.10;46.60;;;;;;8956929;26;19929;-58
2024/04/19 17:37:24;;;;;;;;;;;19.10;46.60;;;;;;8964669;26;19944;-57
2024/04/19 17:41:24;;;;;;;;;;;19.10;46.60;;;;;;8964424;26;19958;-59
2024/04/19 17:45:25;;;;;;;;;;;19.10;46.60;;;;;;8963754;26;19936;-59
2024/04/19 17:49:25;;;;;;;;;;;19.20;46.60;;;;;;8998324;26;19929;-59
2024/04/19 17:53:26;;;;;;;;;;;19.20;46.50;;;;;;9023118;26;20467;-59
2024/04/19 17:57:29;;;;;;;;;;;19.20;46.50;;;;;;8991181;26;19936;-59
2024/04/19 18:01:31;;;;;;;;;;;19.20;46.40;;;;;;8991084;26;19935;-60
2024/04/19 18:05:31;;;;;;;;;;;19.20;46.40;;;;;;9022661;26;19932;-59
2024/04/19 18:09:32;;;;;;;;;;;19.20;46.40;;;;;;9022870;26;20358;-58
2024/04/19 18:13:32;;;;;;;;;;;19.30;46.40;;;;;;8957839;26;19929;-59
2024/04/19 18:17:34;;;;;;;;;;;19.30;46.40;;;;;;8873376;26;19937;-59
2024/04/19 18:21:34;;;;;;;;;;;19.30;46.40;;;;;;8903972;26;19930;-59
2024/04/19 18:25:35;;;;;;;;;;;19.20;46.40;;;;;;8904416;26;19929;-59
2024/04/19 18:29:36;;;;;;;;;;;19.20;46.40;;;;;;8873188;26;20420;-59
2024/04/19 18:33:41;;;;;;;;;;;19.20;46.50;;;;;;8899437;26;19959;-59
2024/04/19 18:37:42;;;;;;;;;;;19.20;46.60;;;;;;8902221;26;19933;-59
2024/04/19 18:41:43;;;;;;;;;;;19.20;46.50;;;;;;8910016;26;20408;-59
2024/04/19 18:45:46;;;;;;;;;;;19.20;46.50;;;;;;8963112;26;20355;-58
2024/04/19 18:49:47;;;;;;;;;;;19.30;46.50;;;;;;9001467;26;19928;-57
2024/04/19 18:53:48;;;;;;;;;;;19.20;46.40;;;;;;9021790;26;19929;-56
2024/04/19 18:57:49;;;;;;;;;;;19.30;46.40;;;;;;9021871;26;19936;-57
2024/04/19 19:01:49;;;;;;;;;;;19.30;46.40;;;;;;9021818;26;19928;-56
2024/04/19 19:05:52;;;;;;;;;;;19.20;46.30;;;;;;9021133;26;19928;-56
2024/04/19 19:09:54;;;;;;;;;;;19.30;46.40;;;;;;9022238;26;19935;-56
2024/04/19 19:13:55;;;;;;;;;;;19.30;46.40;;;;;;8983228;26;19929;-57
2024/04/19 19:17:56;;;;;;;;;;;19.30;46.40;;;;;;8962018;26;19929;-56
2024/04/19 19:21:56;;;;;;;;;;;19.20;46.40;;;;;;8962142;26;19998;-57
2024/04/19 19:26:02;;;;;;;;;;;19.20;46.50;;;;;;8961798;26;19928;-57
2024/04/19 19:30:03;;;;;;;;;;;19.20;46.50;;;;;;8961131;26;19936;-56
2024/04/19 19:34:03;;;;;;;;;;;19.20;46.50;;;;;;8961490;26;20421;-56
2024/04/19 19:38:04;;;;;;;;;;;19.20;46.50;;;;;;8930422;26;19929;-57
2024/04/19 19:42:05;;;;;;;;;;;19.20;46.50;;;;;;8961449;26;19928;-56
2024/04/19 19:46:07;;;;;;;;;;;19.20;46.40;;;;;;8961168;26;19936;-57
2024/04/19 19:50:07;;;;;;;;;;;19.20;46.40;;;;;;9005294;26;19928;-56
2024/04/19 19:54:09;;;;;;;;;;;19.30;46.50;;;;;;9020674;26;19961;-57
2024/04/19 19:58:10;;;;;;;;;;;19.30;46.40;;;;;;9020098;26;19936;-59
2024/04/19 20:06:30;;;;;;;;;;;19.30;46.40;;;;;;9019512;26;19997;-59
2024/04/19 20:10:30;;;;;;;;;;;19.30;46.40;;;;;;9020317;26;19929;-59
2024/04/19 20:14:31;;;;;;;;;;;19.30;46.40;;;;;;8926639;26;19956;-59
2024/04/19 20:18:32;;;;;;;;;;;19.20;46.40;;;;;;8901294;26;19941;-59
2024/04/19 20:22:32;;;;;;;;;;;19.20;46.50;;;;;;8870762;26;20268;-59
2024/04/19 20:26:33;;;;;;;;;;;19.20;46.60;;;;;;8901326;26;19930;-58
2024/04/19 20:30:34;;;;;;;;;;;19.20;46.60;;;;;;8911217;26;19973;-59
2024/04/19 20:34:34;;;;;;;;;;;19.20;46.60;;;;;;8959317;26;19929;-59
2024/04/19 20:38:35;;;;;;;;;;;19.30;46.60;;;;;;8959278;26;19957;-59
2024/04/19 20:42:35;;;;;;;;;;;19.20;46.50;;;;;;8928055;26;19957;-59
2024/04/19 20:46:36;;;;;;;;;;;19.20;46.50;;;;;;8959486;26;20266;-59
2024/04/19 20:50:36;;;;;;;;;;;19.20;46.50;;;;;;9011610;26;19929;-58
2024/04/19 20:54:37;;;;;;;;;;;19.20;46.50;;;;;;9018593;26;19929;-59
2024/04/19 20:58:38;;;;;;;;;;;19.20;46.50;;;;;;9018002;26;19936;-60
2024/04/19 21:02:39;;;;;;;;;;;19.20;46.50;;;;;;9018695;26;20287;-59
2024/04/19 21:06:39;;;;;;;;;;;19.20;46.50;;;;;;9017966;26;20341;-56
2024/04/19 21:10:40;;;;;;;;;;;19.20;46.50;;;;;;9018053;26;19929;-56
2024/04/19 21:14:41;;;;;;;;;;;19.20;46.50;;;;;;8924144;26;19937;-56
2024/04/19 21:18:42;;;;;;;;;;;19.20;46.60;;;;;;8905912;26;20351;-57
2024/04/19 21:22:42;;;;;;;;;;;19.20;46.60;;;;;;8905549;26;19937;-57
2024/04/19 21:26:43;;;;;;;;;;;19.20;46.60;;;;;;8905184;26;19937;-57
2024/04/19 21:30:43;;;;;;;;;;;19.10;46.60;;;;;;8918282;26;19941;-57
2024/04/19 21:34:45;;;;;;;;;;;19.10;46.60;;;;;;8963778;26;19937;-57
2024/04/19 21:38:46;;;;;;;;;;;19.10;46.70;;;;;;8932636;26;19998;-56
2024/04/19 21:42:51;;;;;;;;;;;19.10;46.70;;;;;;8932265;26;19998;-57
2024/04/19 21:46:51;;;;;;;;;;;19.10;46.70;;;;;;8963362;26;19933;-56
2024/04/19 21:50:52;;;;;;;;;;;19.10;46.70;;;;;;9019633;26;19977;-57
2024/04/19 21:54:53;;;;;;;;;;;19.10;46.80;;;;;;9022959;26;19959;-56
2024/04/19 21:58:56;;;;;;;;;;;19.10;46.80;;;;;;9023249;26;19993;-57
2024/04/19 22:02:56;;;;;;;;;;;19.10;46.80;;;;;;8948005;26;19998;-57
2024/04/19 22:06:57;;;;;;;;;;;19.10;46.80;;;;;;8963426;26;19929;-56
2024/04/19 22:11:08;;;;;;;;;;;19.10;46.80;;;;;;8963296;26;19935;-56
2024/04/19 22:15:09;;;;;;;;;;;19.00;46.80;;;;;;8962637;26;19929;-57
2024/04/19 22:19:09;;;;;;;;;;;19.00;46.80;;;;;;8932176;26;19935;-58
2024/04/19 22:23:10;;;;;;;;;;;19.00;46.80;;;;;;8962429;26;19997;-57
2024/04/19 22:27:11;;;;;;;;;;;19.00;46.80;;;;;;8961443;26;19965;-58
2024/04/19 22:31:11;;;;;;;;;;;19.10;46.90;;;;;;8962902;26;20386;-57
2024/04/19 22:35:12;;;;;;;;;;;19.00;46.80;;;;;;8962791;26;20378;-58
2024/04/19 22:39:13;;;;;;;;;;;19.00;46.90;;;;;;8931039;26;19964;-59
2024/04/19 22:43:13;;;;;;;;;;;19.00;46.90;;;;;;8962436;26;19998;-58
2024/04/19 22:47:14;;;;;;;;;;;19.00;46.90;;;;;;8964075;26;20264;-57
2024/04/19 22:51:14;;;;;;;;;;;19.00;46.90;;;;;;9021785;26;19997;-58
2024/04/19 22:55:15;;;;;;;;;;;19.00;46.90;;;;;;9021827;26;19999;-58
2024/04/19 22:59:16;;;;;;;;;;;19.00;46.90;;;;;;9021244;26;19935;-58
2024/04/19 23:03:17;;;;;;;;;;;19.00;46.90;;;;;;9021392;26;19954;-56
2024/04/19 23:07:17;;;;;;;;;;;19.00;47.00;;;;;;9020883;26;20350;-58
2024/04/19 23:11:18;;;;;;;;;;;19.00;47.00;;;;;;9021081;26;19929;-57
2024/04/19 23:15:19;;;;;;;;;;;19.00;47.00;;;;;;8904546;26;19934;-58
2024/04/19 23:19:20;;;;;;;;;;;19.00;47.00;;;;;;8902588;26;19979;-58
2024/04/19 23:23:20;;;;;;;;;;;19.00;47.10;;;;;;8902394;26;19945;-58
2024/04/19 23:27:21;;;;;;;;;;;18.90;46.90;;;;;;8902312;26;19936;-58